Terminal Aerodrome Forecast
Issued by NWS Jacksonville, FL

Home | Current Version | Previous Version | Text Only | Print | Product List | Glossary On
Versions: 1 2 3 4 5 6 7 8 9 10 11 12 13 14 15 16
463
FTUS42 KJAX 111721
TAFSSI
TAF
KSSI 111721Z 1118/1218 20008KT P6SM SKC
     FM120800 22007KT P6SM SCT015 BKN025
     FM121500 24014G22KT P6SM SCT025 BKN250=

USA.gov is the U.S. government's official web portal to all federal, state and local government web resources and services.